Time;durP1;ratioP1;P1;durP2;ratioP2;P2;SDS_P1;SDS_P2;PMS_P1;PMS_P2;Temp;Humidity;BMP_temperature;BMP_pressure;BME280_temperature;BME280_humidity;BME280_pressure;Samples;Min_cycle;Max_cycle;Signal;HPM_P1;HPM_P2
2024/02/02 00:01:17;;;;;;;9.77;6.38;;;;;;;6.43;76.32;98164.88;5012082;28;20049;-77
2024/02/02 00:03:45;;;;;;;12.95;7.10;;;;;;;6.37;76.35;98160.97;5012103;28;20058;-78
2024/02/02 00:06:13;;;;;;;8.05;6.15;;;;;;;6.39;78.63;98166.06;5012281;28;20060;-77
2024/02/02 00:08:40;;;;;;;9.02;6.68;;;;;;;6.45;80.11;98165.59;5012276;28;20272;-77
2024/02/02 00:11:08;;;;;;;8.98;5.85;;;;;;;6.43;79.40;98159.69;5012019;28;20142;-77
2024/02/02 00:13:37;;;;;;;10.27;6.38;;;;;;;6.34;77.34;98156.03;5011823;28;20060;-77
2024/02/02 00:16:05;;;;;;;9.60;6.05;;;;;;;6.21;76.37;98159.66;5012334;28;20057;-77
2024/02/02 00:18:32;;;;;;;10.63;6.35;;;;;;;6.11;76.41;98156.94;5012169;28;20393;-77
2024/02/02 00:21:00;;;;;;;9.20;5.68;;;;;;;5.98;76.31;98144.09;5011733;28;20053;-77
2024/02/02 00:23:28;;;;;;;10.43;6.53;;;;;;;5.89;76.30;98160.28;5011750;28;20049;-77
2024/02/02 00:25:56;;;;;;;10.27;6.38;;;;;;;5.87;78.19;98157.81;5011697;28;20140;-78
2024/02/02 00:28:24;;;;;;;11.25;7.10;;;;;;;5.98;80.59;98159.63;5011965;28;20449;-77
2024/02/02 00:30:52;;;;;;;11.80;5.93;;;;;;;6.07;79.63;98164.13;5011648;28;20060;-76
2024/02/02 00:33:20;;;;;;;11.75;6.72;;;;;;;6.05;78.50;98158.22;5011408;28;20144;-77
2024/02/02 00:35:48;;;;;;;9.88;6.03;;;;;;;6.02;78.76;98158.47;5011655;28;20419;-77
2024/02/02 00:38:16;;;;;;;8.82;5.85;;;;;;;6.02;79.71;98150.69;5011540;28;20046;-78
2024/02/02 00:40:44;;;;;;;13.98;7.57;;;;;;;6.05;80.79;98144.44;5011301;28;20081;-77
2024/02/02 00:43:11;;;;;;;11.93;6.47;;;;;;;5.97;77.76;98145.03;5011318;28;20076;-77
2024/02/02 00:45:39;;;;;;;11.35;5.85;;;;;;;5.84;76.17;98144.25;5011647;28;20054;-77
2024/02/02 00:48:08;;;;;;;12.05;5.63;;;;;;;5.69;75.64;98152.22;5011682;28;20048;-77
2024/02/02 00:50:36;;;;;;;16.60;5.55;;;;;;;5.57;75.50;98150.53;5011674;28;20050;-77
2024/02/02 00:53:03;;;;;;;9.75;4.65;;;;;;;5.48;75.43;98152.00;5011462;28;20119;-77
2024/02/02 00:55:31;;;;;;;8.80;4.68;;;;;;;5.47;75.55;98154.72;5011626;28;20046;-77
2024/02/02 00:57:58;;;;;;;7.50;4.95;;;;;;;5.44;74.96;98147.19;5011266;28;20503;-77
2024/02/02 01:00:26;;;;;;;12.55;5.30;;;;;;;5.36;74.70;98150.34;5011534;28;20054;-77
2024/02/02 01:02:53;;;;;;;8.25;4.88;;;;;;;5.27;74.51;98154.41;5011334;28;20054;-77
2024/02/02 01:05:23;;;;;;;9.52;5.10;;;;;;;5.18;74.49;98155.03;5011164;28;20124;-76
2024/02/02 01:07:50;;;;;;;8.15;5.65;;;;;;;5.08;74.88;98143.72;5011306;28;20145;-77
2024/02/02 01:10:18;;;;;;;12.45;5.00;;;;;;;5.03;75.28;98140.63;5014081;28;20077;-77
2024/02/02 01:12:46;;;;;;;9.65;5.57;;;;;;;4.98;75.42;98145.28;5015043;28;20124;-77
2024/02/02 01:15:14;;;;;;;8.27;5.10;;;;;;;4.95;75.44;98142.00;5015113;28;20140;-76
2024/02/02 01:17:45;;;;;;;10.23;5.30;;;;;;;4.93;75.27;98145.63;5015277;28;20439;-77
2024/02/02 01:20:13;;;;;;;14.27;6.32;;;;;;;4.88;75.35;98140.78;5014708;28;20538;-77
2024/02/02 01:22:43;;;;;;;10.80;5.53;;;;;;;4.84;75.28;98147.09;5015195;28;20056;-77
2024/02/02 01:25:11;;;;;;;10.68;4.78;;;;;;;4.78;74.76;98144.94;5014998;28;20045;-76
2024/02/02 01:27:39;;;;;;;13.80;5.43;;;;;;;4.72;75.17;98135.88;5014904;28;20054;-77
2024/02/02 01:30:08;;;;;;;12.50;4.93;;;;;;;4.70;75.50;98140.31;5014536;28;20072;-77
2024/02/02 01:32:36;;;;;;;8.45;4.90;;;;;;;4.68;75.00;98131.00;5014619;28;20053;-77
2024/02/02 01:35:04;;;;;;;12.82;4.82;;;;;;;4.66;74.88;98132.88;5014621;28;20054;-77
2024/02/02 01:37:32;;;;;;;10.00;4.85;;;;;;;4.66;75.02;98122.53;5014636;28;20376;-77
2024/02/02 01:40:00;;;;;;;7.47;4.13;;;;;;;4.61;74.32;98109.91;5014208;28;20125;-77
2024/02/02 01:42:28;;;;;;;13.20;4.80;;;;;;;4.56;74.74;98106.03;5014428;28;20471;-77
2024/02/02 01:44:56;;;;;;;13.48;5.80;;;;;;;4.50;74.38;98102.09;5014301;28;20080;-77
2024/02/02 01:47:23;;;;;;;8.40;4.97;;;;;;;4.47;74.96;98103.13;5014340;28;20126;-77
2024/02/02 01:49:51;;;;;;;9.98;5.25;;;;;;;4.45;75.25;98105.00;5014578;28;20046;-77
2024/02/02 01:52:19;;;;;;;16.30;5.68;;;;;;;4.41;74.91;98106.13;5014645;28;20053;-77
2024/02/02 01:54:46;;;;;;;12.18;6.18;;;;;;;4.39;75.54;98104.59;5014309;28;20075;-77
2024/02/02 01:57:15;;;;;;;13.50;6.00;;;;;;;4.37;75.24;98107.28;5014243;28;20084;-77
2024/02/02 01:59:43;;;;;;;11.43;6.55;;;;;;;4.36;75.49;98105.63;5014412;28;20128;-77
2024/02/02 02:02:12;;;;;;;8.13;5.22;;;;;;;4.33;75.37;98095.53;5014343;28;20054;-78
2024/02/02 02:04:40;;;;;;;15.68;5.88;;;;;;;4.33;75.54;98101.50;5014541;28;20060;-77
2024/02/02 02:07:08;;;;;;;10.90;5.75;;;;;;;4.35;75.66;98106.56;5014609;28;20056;-77
2024/02/02 02:09:36;;;;;;;11.10;5.28;;;;;;;4.39;75.79;98100.25;5014551;28;20050;-77
2024/02/02 02:12:04;;;;;;;11.63;5.85;;;;;;;4.47;76.24;98103.13;5014379;28;20085;-77
2024/02/02 02:14:32;;;;;;;9.48;5.22;;;;;;;4.53;75.39;98107.88;5014161;28;20050;-76
2024/02/02 02:17:00;;;;;;;12.07;6.15;;;;;;;4.51;75.13;98108.94;5014268;28;20080;-76
2024/02/02 02:19:28;;;;;;;9.77;5.78;;;;;;;4.47;75.10;98103.13;5014444;28;20092;-79
2024/02/02 02:21:57;;;;;;;13.98;5.60;;;;;;;4.47;74.95;98113.47;5013810;28;20050;-77
2024/02/02 02:24:24;;;;;;;11.55;5.20;;;;;;;4.46;74.95;98109.25;5013908;28;20574;-76
2024/02/02 02:26:52;;;;;;;15.50;5.60;;;;;;;4.45;75.17;98099.00;5014059;28;20565;-77
2024/02/02 02:29:20;;;;;;;24.33;6.30;;;;;;;4.44;75.16;98098.19;5014273;28;20076;-76
2024/02/02 02:31:54;;;;;;;16.45;7.07;;;;;;;4.43;75.24;98091.34;5013935;28;20050;-77
2024/02/02 02:34:23;;;;;;;10.32;5.45;;;;;;;4.46;75.81;98082.56;5013935;28;20158;-77
2024/02/02 02:36:51;;;;;;;10.32;5.65;;;;;;;4.46;75.33;98080.81;5014296;28;20080;-77
2024/02/02 02:39:19;;;;;;;12.85;6.07;;;;;;;4.45;75.27;98081.75;5013716;28;20042;-77
2024/02/02 02:41:47;;;;;;;9.98;5.25;;;;;;;4.43;75.06;98086.19;5014088;28;20050;-78
2024/02/02 02:44:15;;;;;;;11.65;5.72;;;;;;;4.44;76.04;98082.69;5013770;28;20050;-76
2024/02/02 02:46:43;;;;;;;13.35;6.68;;;;;;;4.46;75.82;98078.25;5013853;28;20132;-77
2024/02/02 02:49:10;;;;;;;13.05;5.97;;;;;;;4.48;75.79;98081.53;5013766;28;20061;-78
2024/02/02 02:51:38;;;;;;;12.80;5.13;;;;;;;4.50;75.51;98084.84;5013713;28;20519;-76
2024/02/02 02:54:06;;;;;;;12.02;5.53;;;;;;;4.54;75.27;98088.03;5013366;28;20077;-77
2024/02/02 02:56:35;;;;;;;11.73;6.30;;;;;;;4.52;75.01;98095.88;5013755;28;20052;-77
2024/02/02 02:59:02;;;;;;;11.40;5.00;;;;;;;4.51;75.14;98102.00;5006841;28;20050;-79
2024/02/02 03:01:30;;;;;;;9.70;5.28;;;;;;;4.53;75.53;98092.38;5011817;28;20471;-77
2024/02/02 03:03:58;;;;;;;15.40;6.28;;;;;;;4.54;75.21;98094.00;5011806;28;20057;-77
2024/02/02 03:06:25;;;;;;;15.50;6.45;;;;;;;4.58;74.94;98088.66;5012144;28;20050;-76
2024/02/02 03:08:53;;;;;;;9.30;4.82;;;;;;;4.60;75.20;98085.03;5012185;28;20591;-77
2024/02/02 03:11:20;;;;;;;11.75;5.47;;;;;;;4.62;75.28;98085.75;5012023;28;20355;-77
2024/02/02 03:13:49;;;;;;;11.63;5.53;;;;;;;4.64;74.61;98075.31;5012366;28;20132;-77
2024/02/02 03:16:16;;;;;;;11.48;6.07;;;;;;;4.67;75.83;98075.06;5013119;28;20056;-77
2024/02/02 03:18:44;;;;;;;6.72;4.60;;;;;;;4.72;77.09;98075.56;5008594;28;20428;-76
2024/02/02 03:21:12;;;;;;;9.93;5.75;;;;;;;4.80;77.03;98070.69;4999441;28;20065;-77
2024/02/02 03:23:40;;;;;;;11.18;5.13;;;;;;;4.85;76.13;98081.50;4992661;28;20050;-78
2024/02/02 03:26:07;;;;;;;8.30;5.00;;;;;;;4.89;76.44;98082.94;4993321;28;20140;-77
2024/02/02 03:28:35;;;;;;;9.57;4.70;;;;;;;4.92;75.90;98081.94;4993123;28;20052;-77
2024/02/02 03:31:04;;;;;;;13.70;5.10;;;;;;;4.92;75.08;98082.75;4991538;28;20506;-77
2024/02/02 03:33:32;;;;;;;11.60;5.95;;;;;;;4.90;74.87;98087.19;4990515;28;20141;-77
2024/02/02 03:36:00;;;;;;;11.82;5.40;;;;;;;4.86;74.49;98087.53;4992713;28;20050;-78
2024/02/02 03:38:27;;;;;;;14.10;5.47;;;;;;;4.82;74.59;98097.25;4993912;28;20077;-78
2024/02/02 03:40:55;;;;;;;12.68;5.60;;;;;;;4.77;74.68;98095.91;4998873;28;20487;-77
2024/02/02 03:43:22;;;;;;;11.85;5.35;;;;;;;4.73;74.65;98095.31;5010847;28;20136;-76
2024/02/02 03:45:50;;;;;;;11.18;5.57;;;;;;;4.70;75.06;98103.28;5012088;28;20261;-76
2024/02/02 03:48:19;;;;;;;9.65;4.75;;;;;;;4.66;75.34;98096.69;5010534;28;20137;-76
2024/02/02 03:50:46;;;;;;;11.00;5.22;;;;;;;4.66;75.10;98100.09;5011175;28;20046;-76
2024/02/02 03:53:14;;;;;;;11.63;4.93;;;;;;;4.69;75.05;98096.47;5010531;28;20045;-76
2024/02/02 03:55:42;;;;;;;12.40;6.03;;;;;;;4.69;74.84;98102.47;5010503;28;20054;-77
2024/02/02 03:58:09;;;;;;;9.38;4.47;;;;;;;4.68;74.75;98099.97;5010589;28;20657;-77
2024/02/02 04:00:36;;;;;;;13.02;4.93;;;;;;;4.66;74.77;98107.03;5011005;28;20045;-77
2024/02/02 04:03:06;;;;;;;10.02;4.75;;;;;;;4.65;74.70;98106.19;5012310;28;20053;-76
2024/02/02 04:05:35;;;;;;;15.32;5.03;;;;;;;4.66;74.58;98113.03;5012535;28;20526;-77
2024/02/02 04:08:03;;;;;;;13.02;5.15;;;;;;;4.67;74.79;98108.69;5012371;28;20050;-76
2024/02/02 04:10:30;;;;;;;12.18;5.00;;;;;;;4.68;74.96;98105.16;5012187;28;20050;-76
2024/02/02 04:12:58;;;;;;;12.85;5.38;;;;;;;4.68;74.58;98099.97;5012235;28;20053;-76
2024/02/02 04:15:26;;;;;;;8.25;4.93;;;;;;;4.67;74.89;98098.34;5012136;28;20535;-76
2024/02/02 04:17:57;;;;;;;6.95;5.05;;;;;;;4.66;74.95;98092.34;5012270;28;20045;-76
2024/02/02 04:20:24;;;;;;;11.68;5.78;;;;;;;4.68;74.97;98110.31;5012163;28;20124;-77
2024/02/02 04:22:53;;;;;;;12.65;5.65;;;;;;;4.68;75.04;98110.31;5012187;28;20050;-76
2024/02/02 04:25:21;;;;;;;13.25;6.47;;;;;;;4.69;75.25;98106.81;5011865;28;20439;-76
2024/02/02 04:27:49;;;;;;;11.00;5.55;;;;;;;4.69;75.01;98110.22;5012039;28;20077;-78
2024/02/02 04:30:17;;;;;;;9.77;6.15;;;;;;;4.71;75.30;98115.28;5012025;28;20056;-76
2024/02/02 04:32:44;;;;;;;10.85;6.30;;;;;;;4.73;75.29;98122.00;5012057;28;20046;-76
2024/02/02 04:35:12;;;;;;;14.23;6.65;;;;;;;4.74;75.36;98112.47;5012009;28;20053;-77
2024/02/02 04:37:40;;;;;;;11.02;6.60;;;;;;;4.77;75.53;98121.75;5011904;28;20526;-77
2024/02/02 04:40:10;;;;;;;13.93;6.90;;;;;;;4.78;75.14;98116.50;5012227;28;20129;-76
2024/02/02 04:42:37;;;;;;;12.88;6.63;;;;;;;4.80;75.49;98116.41;5012373;28;20140;-79
2024/02/02 04:45:06;;;;;;;12.80;8.15;;;;;;;4.83;75.72;98121.34;5011441;28;20054;-77
2024/02/02 04:47:34;;;;;;;13.05;7.80;;;;;;;4.87;75.83;98121.00;5011765;28;20511;-76
2024/02/02 04:50:01;;;;;;;13.10;7.88;;;;;;;4.94;75.97;98119.66;5011921;28;20492;-77
2024/02/02 04:52:29;;;;;;;9.02;6.75;;;;;;;5.03;76.31;98118.19;5011769;28;20060;-76
2024/02/02 04:54:56;;;;;;;15.82;8.20;;;;;;;5.10;75.93;98123.75;5011547;28;20092;-76
2024/02/02 04:57:25;;;;;;;15.38;7.82;;;;;;;5.10;75.54;98124.56;5012040;28;20136;-77
2024/02/02 04:59:53;;;;;;;13.65;7.90;;;;;;;5.09;75.54;98124.66;5011564;28;20526;-77
2024/02/02 05:02:20;;;;;;;14.02;8.07;;;;;;;5.08;75.53;98131.59;5011924;28;20050;-77
2024/02/02 05:04:48;;;;;;;13.65;8.15;;;;;;;5.12;76.04;98129.63;5011536;28;20503;-77
2024/02/02 05:07:15;;;;;;;14.00;9.05;;;;;;;5.15;76.04;98129.41;5012196;28;20495;-76
2024/02/02 05:09:43;;;;;;;12.98;8.88;;;;;;;5.19;76.90;98130.84;5012077;28;20046;-77
2024/02/02 05:12:11;;;;;;;15.88;9.20;;;;;;;5.29;78.38;98131.00;5011781;28;20050;-76
2024/02/02 05:14:40;;;;;;;14.13;9.00;;;;;;;5.35;78.17;98128.78;5011743;28;20454;-77
2024/02/02 05:17:07;;;;;;;19.05;9.95;;;;;;;5.39;77.10;98131.16;5011838;28;20431;-76
2024/02/02 05:19:35;;;;;;;13.52;9.77;;;;;;;5.40;77.42;98133.66;5011452;28;20060;-77
2024/02/02 05:22:03;;;;;;;17.27;9.98;;;;;;;5.43;78.21;98130.00;5011412;28;20046;-76
2024/02/02 05:24:30;;;;;;;16.10;8.75;;;;;;;5.45;77.37;98141.06;5011428;28;20081;-76
2024/02/02 05:27:12;;;;;;;14.75;9.57;;;;;;;5.46;77.50;98128.00;5013828;28;20053;-77
2024/02/02 05:29:43;;;;;;;14.13;8.18;;;;;;;5.52;78.05;98131.91;5016461;28;20081;-77
2024/02/02 05:32:11;;;;;;;13.82;8.93;;;;;;;5.54;77.71;98140.41;5074067;22;20074;-78
2024/02/02 05:34:38;;;;;;;17.75;8.82;;;;;;;5.53;77.04;98149.94;5034234;28;20065;-78
2024/02/02 05:37:06;;;;;;;17.98;10.77;;;;;;;5.50;76.63;98163.09;5027270;28;20061;-78
2024/02/02 05:39:34;;;;;;;19.25;12.02;;;;;;;5.48;76.56;98164.97;5015263;28;20096;-78
2024/02/02 05:42:02;;;;;;;16.13;11.60;;;;;;;5.52;77.94;98162.97;5013786;28;20046;-78
2024/02/02 05:44:29;;;;;;;20.50;12.02;;;;;;;5.56;77.29;98167.00;5013578;28;20057;-78
2024/02/02 05:46:58;;;;;;;28.75;15.48;;;;;;;5.53;76.18;98169.78;5013029;28;20104;-79
2024/02/02 05:49:26;;;;;;;28.50;15.02;;;;;;;5.47;76.24;98158.16;5012941;28;20090;-79
2024/02/02 05:51:54;;;;;;;28.35;14.38;;;;;;;5.45;76.77;98159.19;5012937;28;20053;-78
2024/02/02 05:54:21;;;;;;;24.45;14.05;;;;;;;5.44;76.56;98163.53;5012689;28;20523;-78
2024/02/02 05:56:49;;;;;;;19.65;12.48;;;;;;;5.43;76.61;98164.47;5014351;28;20672;-78
2024/02/02 05:59:16;;;;;;;20.27;11.68;;;;;;;5.45;77.26;98156.59;5015997;28;20057;-78
2024/02/02 06:01:44;;;;;;;16.98;11.60;;;;;;;5.48;77.60;98157.19;5016217;28;20128;-78
2024/02/02 06:04:14;;;;;;;18.48;11.40;;;;;;;5.50;77.47;98159.69;5016154;28;20071;-78
2024/02/02 06:06:42;;;;;;;17.90;11.23;;;;;;;5.52;77.88;98158.63;5009389;28;20097;-78
2024/02/02 06:09:11;;;;;;;15.18;10.50;;;;;;;5.58;78.32;98165.94;4995920;28;20050;-78
2024/02/02 06:11:39;;;;;;;17.98;11.10;;;;;;;5.64;78.10;98161.25;4995525;28;20069;-79
2024/02/02 06:14:06;;;;;;;13.68;10.40;;;;;;;5.68;78.95;98166.09;5000980;28;20056;-79
2024/02/02 06:16:34;;;;;;;13.40;9.75;;;;;;;5.73;79.84;98160.59;5003749;28;20042;-81
2024/02/02 06:19:01;;;;;;;16.70;10.43;;;;;;;5.75;79.45;98164.72;4999834;28;20404;-79
2024/02/02 06:21:31;;;;;;;14.18;9.80;;;;;;;5.77;78.24;98162.84;5006142;28;20427;-79
2024/02/02 06:23:58;;;;;;;17.50;10.10;;;;;;;5.80;78.17;98161.78;5007947;28;20045;-79
2024/02/02 06:26:26;;;;;;;13.10;8.95;;;;;;;5.80;77.80;98155.78;5011508;28;20061;-78
2024/02/02 06:28:54;;;;;;;14.07;9.25;;;;;;;5.77;77.66;98155.06;4998455;28;20057;-80
2024/02/02 06:31:24;;;;;;;12.38;8.98;;;;;;;5.78;77.96;98153.31;4995455;28;20142;-78
2024/02/02 06:33:51;;;;;;;13.70;9.07;;;;;;;5.80;78.52;98158.38;4995667;28;20077;-79
2024/02/02 06:36:24;;;;;;;18.33;9.70;;;;;;;5.81;78.24;98150.47;4996338;28;20050;-81
2024/02/02 06:38:54;;;;;;;12.68;8.80;;;;;;;5.86;78.83;98155.31;4996568;28;20091;-79
2024/02/02 06:41:22;;;;;;;13.10;9.07;;;;;;;5.89;78.48;98160.28;5002512;28;20047;-79
2024/02/02 06:43:50;;;;;;;12.15;8.85;;;;;;;5.90;79.68;98164.50;4995295;28;20534;-79
2024/02/02 06:46:17;;;;;;;11.10;7.70;;;;;;;5.95;79.20;98165.03;4995386;28;20081;-79
2024/02/02 06:48:45;;;;;;;10.77;7.65;;;;;;;5.98;78.87;98172.56;4994888;28;20062;-80
2024/02/02 06:51:13;;;;;;;10.50;8.00;;;;;;;6.01;79.01;98174.94;4994079;28;20073;-80
2024/02/02 06:53:41;;;;;;;9.90;7.50;;;;;;;6.03;79.45;98177.41;4993897;28;20054;-80
2024/02/02 06:56:35;;;;;;;10.07;7.43;;;;;;;6.06;79.16;98190.97;4993992;28;20050;-79
2024/02/02 06:59:03;;;;;;;9.75;7.35;;;;;;;6.07;78.10;98190.03;4994748;28;20046;-80
2024/02/02 07:01:31;;;;;;;11.52;8.25;;;;;;;6.04;77.69;98192.84;5000093;28;20492;-79
2024/02/02 07:03:58;;;;;;;10.57;7.60;;;;;;;6.03;77.57;98204.13;5012807;28;20049;-80
2024/02/02 07:06:26;;;;;;;12.48;7.68;;;;;;;6.03;77.63;98213.69;5013068;28;20054;-80
2024/02/02 07:09:00;;;;;;;12.10;8.57;;;;;;;6.02;77.56;98220.63;5015425;28;20082;-79
2024/02/02 07:11:58;;;;;;;9.75;7.43;;;;;;;6.03;77.77;98218.84;5016433;28;20041;-79
2024/02/02 07:14:45;;;;;;;11.32;7.90;;;;;;;6.07;78.11;98204.75;5013699;28;20054;-80
2024/02/02 07:17:23;;;;;;;8.63;7.18;;;;;;;6.11;78.88;98207.00;5015194;28;20050;-80
2024/02/02 07:19:52;;;;;;;9.25;7.40;;;;;;;6.12;78.82;98211.25;5013173;28;20074;-80
2024/02/02 07:22:33;;;;;;;8.18;7.10;;;;;;;6.16;80.33;98212.66;5013851;28;20046;-79
2024/02/02 07:25:00;;;;;;;12.35;6.85;;;;;;;6.19;79.88;98209.84;5016198;28;20077;-80
2024/02/02 07:27:53;;;;;;;9.45;7.80;;;;;;;6.29;81.54;98215.16;5012849;28;20128;-79
2024/02/02 07:30:42;;;;;;;;;;;;;;;6.37;81.26;98220.59;5009402;28;20077;-79
2024/02/02 07:33:21;;;;;;;9.27;6.57;;;;;;;6.43;80.97;98214.13;4989188;28;19929;-79
2024/02/02 07:35:49;;;;;;;10.63;7.38;;;;;;;6.45;80.32;98206.22;5015945;28;20038;-79
2024/02/02 07:38:55;;;;;;;10.32;6.65;;;;;;;6.45;80.06;98209.66;5014519;28;20078;-79
2024/02/02 07:41:25;;;;;;;9.13;6.65;;;;;;;6.48;80.40;98204.22;4996283;28;20063;-79
2024/02/02 07:43:55;;;;;;;10.65;6.95;;;;;;;6.51;79.63;98203.97;5014692;28;20419;-79
2024/02/02 07:46:24;;;;;;;10.15;7.10;;;;;;;6.52;79.07;98194.47;5014609;28;20118;-80
2024/02/02 07:48:53;;;;;;;10.15;7.88;;;;;;;6.51;79.39;98188.44;5014334;28;20057;-79
2024/02/02 07:51:22;;;;;;;10.55;7.50;;;;;;;6.53;80.05;98194.31;5011485;28;20053;-80
2024/02/02 07:53:50;;;;;;;11.85;7.97;;;;;;;6.55;80.45;98189.84;5016684;28;20151;-79
2024/02/02 07:56:20;;;;;;;10.93;8.05;;;;;;;6.62;80.97;98185.03;5017002;28;20065;-79
2024/02/02 07:58:48;;;;;;;10.63;7.72;;;;;;;6.67;80.91;98184.66;5015020;28;20150;-79
2024/02/02 08:01:17;;;;;;;9.90;7.30;;;;;;;6.68;79.75;98183.72;5014798;28;20057;-80
2024/02/02 08:03:45;;;;;;;10.48;8.13;;;;;;;6.70;80.08;98181.84;5016085;28;20118;-80
2024/02/02 08:06:13;;;;;;;10.48;7.22;;;;;;;6.71;80.48;98178.31;5014411;28;20110;-79
2024/02/02 08:08:41;;;;;;;9.63;7.75;;;;;;;6.74;80.66;98180.69;5016228;28;20082;-79
2024/02/02 08:11:08;;;;;;;9.02;6.93;;;;;;;6.75;80.02;98177.94;5014334;28;20062;-80
2024/02/02 08:13:36;;;;;;;9.70;7.13;;;;;;;6.72;79.34;98174.78;5015411;28;20039;-79
2024/02/02 08:16:04;;;;;;;11.90;7.38;;;;;;;6.74;79.31;98183.28;5016862;28;20046;-79
2024/02/02 08:18:33;;;;;;;10.45;7.20;;;;;;;6.73;79.24;98186.78;5014205;28;20078;-80
2024/02/02 08:21:02;;;;;;;9.77;7.03;;;;;;;6.72;79.41;98185.97;5009637;28;20030;-79
2024/02/02 08:23:30;;;;;;;9.07;7.47;;;;;;;6.72;79.32;98174.78;5012309;28;20043;-80
2024/02/02 08:25:58;;;;;;;9.98;7.40;;;;;;;6.74;79.83;98159.94;5014480;28;20077;-80
2024/02/02 08:28:25;;;;;;;9.10;7.53;;;;;;;6.74;80.23;98149.56;5013665;28;20034;-80
2024/02/02 08:30:54;;;;;;;10.80;7.60;;;;;;;6.75;79.35;98144.22;5005136;28;20051;-80
2024/02/02 08:33:22;;;;;;;15.40;7.22;;;;;;;6.74;79.12;98142.59;5010112;28;20094;-79
2024/02/02 08:35:52;;;;;;;13.75;6.93;;;;;;;6.77;78.75;98146.72;5015264;28;20073;-80
2024/02/02 08:38:19;;;;;;;12.40;6.82;;;;;;;6.78;79.00;98148.38;5013370;28;20054;-80
2024/02/02 08:40:48;;;;;;;11.40;7.75;;;;;;;6.80;79.09;98155.09;4997776;28;20504;-79
2024/02/02 08:43:17;;;;;;;11.18;8.27;;;;;;;6.79;78.48;98145.63;4995906;28;20120;-79
2024/02/02 08:46:07;;;;;;;12.73;7.65;;;;;;;6.78;78.04;98135.41;5006926;28;20050;-79
2024/02/02 08:48:40;;;;;;;8.45;7.15;;;;;;;6.76;77.90;98137.28;5011105;28;20054;-79
2024/02/02 08:51:53;;;;;;;8.10;7.00;;;;;;;6.74;77.66;98146.97;5011524;28;20062;-80
2024/02/02 08:54:33;;;;;;;11.13;7.72;;;;;;;6.72;77.79;98154.03;5003985;28;20114;-79
2024/02/02 08:57:26;;;;;;;12.20;8.30;;;;;;;6.71;78.26;98168.78;5003277;28;20053;-79
2024/02/02 08:59:54;;;;;;;10.35;7.40;;;;;;;6.71;78.24;98166.19;5010308;28;20114;-80
2024/02/02 09:02:50;;;;;;;10.45;7.70;;;;;;;6.73;78.64;98179.00;5009305;28;20051;-79
2024/02/02 09:05:20;;;;;;;8.77;6.93;;;;;;;6.72;78.57;98174.78;4994893;28;20053;-79
2024/02/02 09:07:52;;;;;;;10.98;6.95;;;;;;;6.75;78.88;98179.72;4993717;28;20073;-80
2024/02/02 09:11:16;;;;;;;8.55;6.30;;;;;;;6.82;79.38;98165.31;5003672;28;20058;-80
2024/02/02 09:13:44;;;;;;;12.65;6.88;;;;;;;6.86;78.52;98164.13;4993578;28;20083;-79
2024/02/02 09:16:14;;;;;;;8.48;6.72;;;;;;;6.89;78.61;98153.53;4998167;28;20089;-80
2024/02/02 09:18:44;;;;;;;10.15;7.03;;;;;;;6.93;78.73;98154.09;4995145;28;20129;-80
2024/02/02 09:21:16;;;;;;;7.78;6.18;;;;;;;6.99;79.83;98157.03;4993597;28;20050;-80
2024/02/02 09:23:49;;;;;;;11.70;7.07;;;;;;;7.07;80.20;98159.06;4992909;28;20050;-79
2024/02/02 09:26:30;;;;;;;10.07;6.07;;;;;;;7.15;80.43;98150.63;4993554;28;20078;-79
2024/02/02 09:29:00;;;;;;;8.80;5.80;;;;;;;7.20;79.24;98159.72;4993525;28;20142;-79
2024/02/02 09:31:32;;;;;;;8.35;6.05;;;;;;;7.23;78.98;98171.63;4995765;28;20050;-80
2024/02/02 09:34:05;;;;;;;9.00;6.90;;;;;;;7.25;78.57;98172.34;4997522;28;20046;-80
2024/02/02 09:36:33;;;;;;;9.20;6.03;;;;;;;7.28;78.39;98176.44;4997733;28;20757;-80
2024/02/02 09:39:09;;;;;;;7.63;6.22;;;;;;;7.30;80.03;98188.34;4997589;28;20096;-79
2024/02/02 09:42:04;;;;;;;7.30;5.90;;;;;;;7.34;79.71;98181.97;4996738;28;20060;-80
2024/02/02 09:44:45;;;;;;;7.45;5.93;;;;;;;7.33;79.01;98167.38;4996713;28;20773;-79
2024/02/02 09:47:35;;;;;;;8.18;6.55;;;;;;;7.37;78.07;98148.00;4997521;28;20124;-80
2024/02/02 09:50:16;;;;;;;7.57;6.10;;;;;;;7.40;78.95;98147.75;4997371;28;20413;-80
2024/02/02 09:53:01;;;;;;;9.38;6.68;;;;;;;7.43;78.43;98152.69;4997170;28;20129;-79
2024/02/02 09:55:35;;;;;;;7.60;6.30;;;;;;;7.45;79.12;98144.78;4997890;28;20050;-79
2024/02/02 09:58:24;;;;;;;8.88;6.03;;;;;;;7.48;79.58;98159.28;4998703;28;20061;-79
2024/02/02 10:00:57;;;;;;;9.77;6.93;;;;;;;7.47;77.92;98161.06;4997543;28;20058;-80
2024/02/02 10:03:28;;;;;;;;;;;;;;;7.50;77.98;98167.75;4997919;28;20050;-79
2024/02/02 10:06:14;;;;;;;9.38;7.40;;;;;;;7.48;77.38;98172.25;4997121;28;19953;-79
2024/02/02 10:08:55;;;;;;;12.20;9.13;;;;;;;7.46;77.47;98172.41;4997143;28;20061;-80
2024/02/02 10:11:42;;;;;;;13.52;8.95;;;;;;;7.46;77.33;98169.00;4996355;28;20048;-79
2024/02/02 10:14:25;;;;;;;11.32;8.95;;;;;;;7.44;77.81;98171.69;5005671;28;20054;-79
2024/02/02 10:17:03;;;;;;;9.88;7.80;;;;;;;7.43;78.51;98164.84;5019290;28;20061;-80
2024/02/02 10:19:50;;;;;;;9.82;7.57;;;;;;;7.48;78.80;98167.06;5018766;28;20057;-79
2024/02/02 10:22:33;;;;;;;9.02;7.38;;;;;;;7.55;78.76;98173.44;5008003;28;20077;-79
2024/02/02 10:25:17;;;;;;;10.48;7.47;;;;;;;7.56;77.57;98175.06;4999133;28;20078;-80
2024/02/02 10:28:01;;;;;;;9.23;7.53;;;;;;;7.58;78.01;98184.38;4998173;28;20222;-79
2024/02/02 10:30:44;;;;;;;12.98;9.00;;;;;;;7.59;77.51;98183.44;5005986;28;20065;-80
2024/02/02 10:33:22;;;;;;;;;;;;;;;7.64;77.65;98183.06;5018025;28;20051;-79
2024/02/02 10:36:03;;;;;;;17.52;11.80;;;;;;;7.66;77.34;98175.16;5016310;28;19926;-79
2024/02/02 10:38:41;;;;;;;13.15;7.68;;;;;;;7.66;76.76;98173.38;5014695;28;20521;-80
2024/02/02 10:41:20;;;;;;;8.07;6.13;;;;;;;7.67;76.66;98159.44;4998609;28;20050;-79
2024/02/02 10:43:58;;;;;;;12.55;10.00;;;;;;;7.71;76.42;98165.22;4996572;28;20566;-79
2024/02/02 10:46:36;;;;;;;8.23;6.72;;;;;;;7.74;76.69;98164.94;4997086;28;20531;-79
2024/02/02 10:49:19;;;;;;;8.80;6.80;;;;;;;7.75;76.60;98154.44;4996902;28;20141;-80
2024/02/02 10:52:00;;;;;;;8.88;6.55;;;;;;;7.81;77.14;98150.53;4997164;28;20081;-79
2024/02/02 10:54:51;;;;;;;13.32;8.60;;;;;;;7.83;76.52;98144.25;4996030;28;20050;-79
2024/02/02 10:57:29;;;;;;;11.50;8.07;;;;;;;7.89;76.67;98139.50;4996544;28;20583;-80
2024/02/02 11:00:13;;;;;;;7.57;6.78;;;;;;;7.95;77.67;98133.78;4996891;28;20054;-79
2024/02/02 11:02:57;;;;;;;9.55;6.50;;;;;;;8.02;77.31;98127.13;4995615;28;20058;-79
2024/02/02 11:05:33;;;;;;;6.68;5.75;;;;;;;8.11;76.38;98123.78;4995650;28;20432;-80
2024/02/02 11:08:06;;;;;;;7.20;6.00;;;;;;;8.19;76.08;98105.75;4996051;28;20521;-79
2024/02/02 11:10:42;;;;;;;8.32;6.25;;;;;;;8.33;76.27;98101.16;4995814;28;20047;-80
2024/02/02 11:13:21;;;;;;;8.10;5.50;;;;;;;8.40;74.64;98097.94;4996007;28;20145;-79
2024/02/02 11:15:58;;;;;;;5.80;5.18;;;;;;;8.50;74.52;98090.16;4996818;28;20084;-80
2024/02/02 11:18:43;;;;;;;4.47;4.05;;;;;;;8.74;73.96;98082.00;4995683;28;20046;-79
2024/02/02 11:21:25;;;;;;;6.20;4.90;;;;;;;8.96;73.40;98083.56;4995408;28;20542;-80
2024/02/02 11:24:00;;;;;;;5.10;4.60;;;;;;;9.18;71.27;98084.25;4995148;28;20046;-80
2024/02/02 11:26:37;;;;;;;5.60;4.53;;;;;;;9.38;71.26;98093.75;4995491;28;20054;-79
2024/02/02 11:29:15;;;;;;;5.10;4.20;;;;;;;9.78;69.85;98084.94;4995149;28;20117;-80
2024/02/02 11:31:51;;;;;;;5.53;4.07;;;;;;;10.20;70.00;98089.75;4994674;28;20061;-80
2024/02/02 11:34:31;;;;;;;5.00;4.30;;;;;;;10.47;68.02;98085.56;4994783;28;20053;-79
2024/02/02 11:37:07;;;;;;;4.57;4.18;;;;;;;10.61;66.41;98098.13;4994228;28;20114;-79
2024/02/02 11:39:53;;;;;;;4.60;4.15;;;;;;;10.63;65.91;98090.16;4994696;28;20054;-80
2024/02/02 11:42:22;;;;;;;5.28;3.90;;;;;;;10.58;66.43;98087.97;4994580;28;20089;-80
2024/02/02 11:44:54;;;;;;;4.05;3.65;;;;;;;10.52;66.98;98083.34;4994051;28;20050;-80
2024/02/02 11:47:23;;;;;;;4.73;3.80;;;;;;;10.46;65.89;98070.88;4994253;28;20524;-79
2024/02/02 11:50:01;;;;;;;5.25;3.53;;;;;;;10.37;64.84;98064.75;4994022;28;20296;-79
2024/02/02 11:52:40;;;;;;;5.07;4.22;;;;;;;10.26;65.17;98064.91;4993990;28;20132;-80
2024/02/02 11:55:16;;;;;;;4.55;3.60;;;;;;;10.21;66.73;98060.13;4993139;28;20057;-79
2024/02/02 11:57:47;;;;;;;4.82;3.67;;;;;;;10.20;66.75;98062.84;4996312;28;20058;-80